sensor_id;sensor_type;location;lat;lon;timestamp;temperature;humidity
16814;DHT22;8524;57.650;11.926;2023-12-20T00:00:21;4.70;99.90
16814;DHT22;8524;57.650;11.926;2023-12-20T00:02:47;4.80;99.90
16814;DHT22;8524;57.650;11.926;2023-12-20T00:05:14;4.80;99.90
16814;DHT22;8524;57.650;11.926;2023-12-20T00:07:41;4.80;99.90
16814;DHT22;8524;57.650;11.926;2023-12-20T00:10:08;4.80;99.90
16814;DHT22;8524;57.650;11.926;2023-12-20T00:12:35;4.80;99.90
16814;DHT22;8524;57.650;11.926;2023-12-20T00:15:04;4.80;99.90
16814;DHT22;8524;57.650;11.926;2023-12-20T00:17:31;4.80;99.90
16814;DHT22;8524;57.650;11.926;2023-12-20T00:19:58;4.70;99.90
16814;DHT22;8524;57.650;11.926;2023-12-20T00:22:25;4.60;99.90
16814;DHT22;8524;57.650;11.926;2023-12-20T00:24:52;4.60;99.90
16814;DHT22;8524;57.650;11.926;2023-12-20T00:27:18;4.50;99.90
16814;DHT22;8524;57.650;11.926;2023-12-20T00:29:45;4.50;99.90
16814;DHT22;8524;57.650;11.926;2023-12-20T00:32:16;4.60;99.90
16814;DHT22;8524;57.650;11.926;2023-12-20T00:34:43;4.50;99.90
16814;DHT22;8524;57.650;11.926;2023-12-20T00:37:10;4.40;99.90
16814;DHT22;8524;57.650;11.926;2023-12-20T00:39:37;4.40;99.90
16814;DHT22;8524;57.650;11.926;2023-12-20T00:42:04;4.40;99.90
16814;DHT22;8524;57.650;11.926;2023-12-20T00:44:31;4.40;99.90
16814;DHT22;8524;57.650;11.926;2023-12-20T00:46:58;4.40;99.90
16814;DHT22;8524;57.650;11.926;2023-12-20T00:49:26;4.40;99.90
16814;DHT22;8524;57.650;11.926;2023-12-20T00:51:53;4.40;99.90
16814;DHT22;8524;57.650;11.926;2023-12-20T00:54:20;4.40;99.90
16814;DHT22;8524;57.650;11.926;2023-12-20T00:56:47;4.50;99.90
16814;DHT22;8524;57.650;11.926;2023-12-20T00:59:15;4.60;99.90
16814;DHT22;8524;57.650;11.926;2023-12-20T01:01:42;4.50;99.90
16814;DHT22;8524;57.650;11.926;2023-12-20T01:04:08;4.60;99.90
16814;DHT22;8524;57.650;11.926;2023-12-20T01:06:37;4.60;99.90
16814;DHT22;8524;57.650;11.926;2023-12-20T01:09:04;4.60;99.90
16814;DHT22;8524;57.650;11.926;2023-12-20T01:11:31;4.50;99.90
16814;DHT22;8524;57.650;11.926;2023-12-20T01:13:57;4.60;99.90
16814;DHT22;8524;57.650;11.926;2023-12-20T01:16:24;4.50;99.90
16814;DHT22;8524;57.650;11.926;2023-12-20T01:18:51;4.50;99.90
16814;DHT22;8524;57.650;11.926;2023-12-20T01:21:18;4.60;99.90
16814;DHT22;8524;57.650;11.926;2023-12-20T01:23:46;4.60;99.90
16814;DHT22;8524;57.650;11.926;2023-12-20T01:26:13;4.60;99.90
16814;DHT22;8524;57.650;11.926;2023-12-20T01:28:41;4.70;99.90
16814;DHT22;8524;57.650;11.926;2023-12-20T01:31:08;4.60;99.90
16814;DHT22;8524;57.650;11.926;2023-12-20T01:33:35;4.70;99.90
16814;DHT22;8524;57.650;11.926;2023-12-20T01:36:02;4.60;99.90
16814;DHT22;8524;57.650;11.926;2023-12-20T01:38:29;4.70;99.90
16814;DHT22;8524;57.650;11.926;2023-12-20T01:40:58;4.70;99.90
16814;DHT22;8524;57.650;11.926;2023-12-20T01:43:24;4.80;99.90
16814;DHT22;8524;57.650;11.926;2023-12-20T01:45:52;4.80;99.90
16814;DHT22;8524;57.650;11.926;2023-12-20T01:48:20;4.80;99.90
16814;DHT22;8524;57.650;11.926;2023-12-20T01:50:47;4.80;99.90
16814;DHT22;8524;57.650;11.926;2023-12-20T01:53:15;4.90;99.90
16814;DHT22;8524;57.650;11.926;2023-12-20T01:55:43;4.90;99.90
16814;DHT22;8524;57.650;11.926;2023-12-20T01:58:12;4.90;99.90
16814;DHT22;8524;57.650;11.926;2023-12-20T02:00:40;4.90;99.90
16814;DHT22;8524;57.650;11.926;2023-12-20T02:03:07;5.00;99.90
16814;DHT22;8524;57.650;11.926;2023-12-20T02:05:35;5.00;99.90
16814;DHT22;8524;57.650;11.926;2023-12-20T02:08:02;5.00;99.90
16814;DHT22;8524;57.650;11.926;2023-12-20T02:10:30;5.00;99.90
16814;DHT22;8524;57.650;11.926;2023-12-20T02:12:56;5.00;99.90
16814;DHT22;8524;57.650;11.926;2023-12-20T02:15:25;5.00;99.90
16814;DHT22;8524;57.650;11.926;2023-12-20T02:17:52;5.00;99.90
16814;DHT22;8524;57.650;11.926;2023-12-20T02:20:20;5.00;99.90
16814;DHT22;8524;57.650;11.926;2023-12-20T02:22:48;5.10;99.90
16814;DHT22;8524;57.650;11.926;2023-12-20T02:25:15;5.10;99.90
16814;DHT22;8524;57.650;11.926;2023-12-20T02:27:42;5.00;99.90
16814;DHT22;8524;57.650;11.926;2023-12-20T02:30:10;5.10;99.90
16814;DHT22;8524;57.650;11.926;2023-12-20T02:32:37;5.10;99.90
16814;DHT22;8524;57.650;11.926;2023-12-20T02:35:04;5.10;99.90
16814;DHT22;8524;57.650;11.926;2023-12-20T02:37:32;5.10;99.90
16814;DHT22;8524;57.650;11.926;2023-12-20T02:40:02;5.10;99.90
16814;DHT22;8524;57.650;11.926;2023-12-20T02:42:30;5.10;99.90
16814;DHT22;8524;57.650;11.926;2023-12-20T02:44:56;5.10;99.90
16814;DHT22;8524;57.650;11.926;2023-12-20T02:47:23;5.10;99.90
16814;DHT22;8524;57.650;11.926;2023-12-20T02:49:50;5.20;99.90
16814;DHT22;8524;57.650;11.926;2023-12-20T02:52:18;5.20;99.90
16814;DHT22;8524;57.650;11.926;2023-12-20T02:54:45;5.20;99.90
16814;DHT22;8524;57.650;11.926;2023-12-20T02:57:13;5.20;99.90
16814;DHT22;8524;57.650;11.926;2023-12-20T02:59:40;5.20;99.90
16814;DHT22;8524;57.650;11.926;2023-12-20T03:02:07;5.20;99.90
16814;DHT22;8524;57.650;11.926;2023-12-20T03:04:33;5.20;99.90
16814;DHT22;8524;57.650;11.926;2023-12-20T03:07:00;5.20;99.90
16814;DHT22;8524;57.650;11.926;2023-12-20T03:09:27;5.20;99.90
16814;DHT22;8524;57.650;11.926;2023-12-20T03:11:54;5.30;99.90
16814;DHT22;8524;57.650;11.926;2023-12-20T03:14:22;5.30;99.90
16814;DHT22;8524;57.650;11.926;2023-12-20T03:16:49;5.30;99.90
16814;DHT22;8524;57.650;11.926;2023-12-20T03:19:17;5.30;99.90
16814;DHT22;8524;57.650;11.926;2023-12-20T03:21:44;5.30;99.90
16814;DHT22;8524;57.650;11.926;2023-12-20T03:24:11;5.30;99.90
16814;DHT22;8524;57.650;11.926;2023-12-20T03:26:38;5.30;99.90
16814;DHT22;8524;57.650;11.926;2023-12-20T03:29:04;5.20;99.90
16814;DHT22;8524;57.650;11.926;2023-12-20T03:31:33;5.20;99.90
16814;DHT22;8524;57.650;11.926;2023-12-20T03:33:59;5.30;99.90
16814;DHT22;8524;57.650;11.926;2023-12-20T03:36:26;5.20;99.90
16814;DHT22;8524;57.650;11.926;2023-12-20T03:38:53;5.30;99.90
16814;DHT22;8524;57.650;11.926;2023-12-20T03:41:20;5.30;99.90
16814;DHT22;8524;57.650;11.926;2023-12-20T03:43:47;5.30;99.90
16814;DHT22;8524;57.650;11.926;2023-12-20T03:46:14;5.30;99.90
16814;DHT22;8524;57.650;11.926;2023-12-20T03:48:42;5.30;99.90
16814;DHT22;8524;57.650;11.926;2023-12-20T03:51:09;5.30;99.90
16814;DHT22;8524;57.650;11.926;2023-12-20T03:53:35;5.20;99.90
16814;DHT22;8524;57.650;11.926;2023-12-20T03:56:03;5.20;99.90
16814;DHT22;8524;57.650;11.926;2023-12-20T03:58:30;5.20;99.90
16814;DHT22;8524;57.650;11.926;2023-12-20T04:00:57;5.20;99.90
16814;DHT22;8524;57.650;11.926;2023-12-20T04:03:23;5.10;99.90
16814;DHT22;8524;57.650;11.926;2023-12-20T04:05:52;5.10;99.90
16814;DHT22;8524;57.650;11.926;2023-12-20T04:08:19;5.10;99.90
16814;DHT22;8524;57.650;11.926;2023-12-20T04:10:45;5.10;99.90
16814;DHT22;8524;57.650;11.926;2023-12-20T04:13:13;5.10;99.90
16814;DHT22;8524;57.650;11.926;2023-12-20T04:15:40;5.00;99.90
16814;DHT22;8524;57.650;11.926;2023-12-20T04:18:06;5.10;99.90
16814;DHT22;8524;57.650;11.926;2023-12-20T04:20:33;5.20;99.90
16814;DHT22;8524;57.650;11.926;2023-12-20T04:23:01;5.10;99.90
16814;DHT22;8524;57.650;11.926;2023-12-20T04:25:28;5.20;99.90
16814;DHT22;8524;57.650;11.926;2023-12-20T04:27:55;5.20;99.90
16814;DHT22;8524;57.650;11.926;2023-12-20T04:30:22;5.20;99.90
16814;DHT22;8524;57.650;11.926;2023-12-20T04:32:49;5.20;99.90
16814;DHT22;8524;57.650;11.926;2023-12-20T04:35:16;5.20;99.90
16814;DHT22;8524;57.650;11.926;2023-12-20T04:37:43;5.10;99.90
16814;DHT22;8524;57.650;11.926;2023-12-20T04:40:11;5.20;99.90
16814;DHT22;8524;57.650;11.926;2023-12-20T04:42:38;5.10;99.90
16814;DHT22;8524;57.650;11.926;2023-12-20T04:45:06;5.20;99.90
16814;DHT22;8524;57.650;11.926;2023-12-20T04:47:33;5.20;99.90
16814;DHT22;8524;57.650;11.926;2023-12-20T04:50:00;5.20;99.90
16814;DHT22;8524;57.650;11.926;2023-12-20T04:52:30;5.20;99.90
16814;DHT22;8524;57.650;11.926;2023-12-20T04:54:57;5.20;99.90
16814;DHT22;8524;57.650;11.926;2023-12-20T04:57:26;5.20;99.90
16814;DHT22;8524;57.650;11.926;2023-12-20T04:59:53;5.20;99.90
16814;DHT22;8524;57.650;11.926;2023-12-20T05:02:19;5.10;99.90
16814;DHT22;8524;57.650;11.926;2023-12-20T05:04:46;5.20;99.90
16814;DHT22;8524;57.650;11.926;2023-12-20T05:07:13;5.20;99.90
16814;DHT22;8524;57.650;11.926;2023-12-20T05:09:40;5.20;99.90
16814;DHT22;8524;57.650;11.926;2023-12-20T05:12:07;5.10;99.90
16814;DHT22;8524;57.650;11.926;2023-12-20T05:14:35;5.10;99.90
16814;DHT22;8524;57.650;11.926;2023-12-20T05:17:02;5.20;99.90
16814;DHT22;8524;57.650;11.926;2023-12-20T05:19:29;5.20;99.90
16814;DHT22;8524;57.650;11.926;2023-12-20T05:21:56;5.20;99.90
16814;DHT22;8524;57.650;11.926;2023-12-20T05:24:23;5.20;99.90
16814;DHT22;8524;57.650;11.926;2023-12-20T05:26:50;5.30;99.90
16814;DHT22;8524;57.650;11.926;2023-12-20T05:29:17;5.30;99.90
16814;DHT22;8524;57.650;11.926;2023-12-20T05:31:45;5.30;99.90
16814;DHT22;8524;57.650;11.926;2023-12-20T05:34:12;5.30;99.90
16814;DHT22;8524;57.650;11.926;2023-12-20T05:36:38;5.30;99.90
16814;DHT22;8524;57.650;11.926;2023-12-20T05:39:05;5.30;99.90
16814;DHT22;8524;57.650;11.926;2023-12-20T05:41:33;5.30;99.90
16814;DHT22;8524;57.650;11.926;2023-12-20T05:44:00;5.20;99.90
16814;DHT22;8524;57.650;11.926;2023-12-20T05:46:27;5.30;99.90
16814;DHT22;8524;57.650;11.926;2023-12-20T05:48:55;5.30;99.90
16814;DHT22;8524;57.650;11.926;2023-12-20T05:51:22;5.30;99.90
16814;DHT22;8524;57.650;11.926;2023-12-20T05:53:49;5.30;99.90
16814;DHT22;8524;57.650;11.926;2023-12-20T05:56:16;5.40;99.90
16814;DHT22;8524;57.650;11.926;2023-12-20T05:58:43;5.30;99.90
16814;DHT22;8524;57.650;11.926;2023-12-20T06:01:10;5.40;99.90
16814;DHT22;8524;57.650;11.926;2023-12-20T06:03:40;5.40;99.90
16814;DHT22;8524;57.650;11.926;2023-12-20T06:06:09;5.40;99.90
16814;DHT22;8524;57.650;11.926;2023-12-20T06:08:36;5.40;99.90
16814;DHT22;8524;57.650;11.926;2023-12-20T06:11:03;5.40;99.90
16814;DHT22;8524;57.650;11.926;2023-12-20T06:13:30;5.30;99.90
16814;DHT22;8524;57.650;11.926;2023-12-20T06:15:57;5.30;99.90
16814;DHT22;8524;57.650;11.926;2023-12-20T06:18:24;5.30;99.90
16814;DHT22;8524;57.650;11.926;2023-12-20T06:20:51;5.10;99.90
16814;DHT22;8524;57.650;11.926;2023-12-20T06:23:19;5.10;99.90
16814;DHT22;8524;57.650;11.926;2023-12-20T06:25:46;5.10;99.90
16814;DHT22;8524;57.650;11.926;2023-12-20T06:28:13;5.10;99.90
16814;DHT22;8524;57.650;11.926;2023-12-20T06:30:40;5.00;99.90
16814;DHT22;8524;57.650;11.926;2023-12-20T06:33:07;5.10;99.90
16814;DHT22;8524;57.650;11.926;2023-12-20T06:35:35;5.20;99.90
16814;DHT22;8524;57.650;11.926;2023-12-20T06:38:02;5.20;99.90
16814;DHT22;8524;57.650;11.926;2023-12-20T06:40:30;5.20;99.90
16814;DHT22;8524;57.650;11.926;2023-12-20T06:42:57;5.20;99.90
16814;DHT22;8524;57.650;11.926;2023-12-20T06:45:25;5.30;99.90
16814;DHT22;8524;57.650;11.926;2023-12-20T06:47:51;5.20;99.90
16814;DHT22;8524;57.650;11.926;2023-12-20T06:50:20;5.20;99.90
16814;DHT22;8524;57.650;11.926;2023-12-20T06:52:47;5.20;99.90
16814;DHT22;8524;57.650;11.926;2023-12-20T06:55:13;5.20;99.90
16814;DHT22;8524;57.650;11.926;2023-12-20T06:57:42;5.10;99.90
16814;DHT22;8524;57.650;11.926;2023-12-20T07:00:12;5.10;99.90
16814;DHT22;8524;57.650;11.926;2023-12-20T07:02:39;5.00;99.90
16814;DHT22;8524;57.650;11.926;2023-12-20T07:05:07;5.00;99.90
16814;DHT22;8524;57.650;11.926;2023-12-20T07:07:34;5.00;99.90
16814;DHT22;8524;57.650;11.926;2023-12-20T07:10:01;5.00;99.90
16814;DHT22;8524;57.650;11.926;2023-12-20T07:12:28;5.00;99.90
16814;DHT22;8524;57.650;11.926;2023-12-20T07:14:56;4.90;99.90
16814;DHT22;8524;57.650;11.926;2023-12-20T07:17:23;4.90;99.90
16814;DHT22;8524;57.650;11.926;2023-12-20T07:19:50;4.90;99.90
16814;DHT22;8524;57.650;11.926;2023-12-20T07:22:17;4.90;99.90
16814;DHT22;8524;57.650;11.926;2023-12-20T07:24:44;4.90;99.90
16814;DHT22;8524;57.650;11.926;2023-12-20T07:27:11;4.90;99.90
16814;DHT22;8524;57.650;11.926;2023-12-20T07:29:38;4.90;99.90
16814;DHT22;8524;57.650;11.926;2023-12-20T07:32:06;4.90;99.90
16814;DHT22;8524;57.650;11.926;2023-12-20T07:34:34;4.90;99.90
16814;DHT22;8524;57.650;11.926;2023-12-20T07:37:00;4.90;99.90
16814;DHT22;8524;57.650;11.926;2023-12-20T07:39:27;5.00;99.90
16814;DHT22;8524;57.650;11.926;2023-12-20T07:41:54;5.00;99.90
16814;DHT22;8524;57.650;11.926;2023-12-20T07:44:21;5.00;99.90
16814;DHT22;8524;57.650;11.926;2023-12-20T07:46:48;5.00;99.90
16814;DHT22;8524;57.650;11.926;2023-12-20T07:49:16;4.90;99.90
16814;DHT22;8524;57.650;11.926;2023-12-20T07:51:43;4.90;99.90
16814;DHT22;8524;57.650;11.926;2023-12-20T07:54:10;4.90;99.90
16814;DHT22;8524;57.650;11.926;2023-12-20T07:56:37;5.00;99.90
16814;DHT22;8524;57.650;11.926;2023-12-20T07:59:05;4.90;99.90
16814;DHT22;8524;57.650;11.926;2023-12-20T08:01:32;4.90;99.90
16814;DHT22;8524;57.650;11.926;2023-12-20T08:03:59;4.90;99.90
16814;DHT22;8524;57.650;11.926;2023-12-20T08:06:27;4.80;99.90
16814;DHT22;8524;57.650;11.926;2023-12-20T08:08:54;4.80;99.90
16814;DHT22;8524;57.650;11.926;2023-12-20T08:11:21;4.80;99.90
16814;DHT22;8524;57.650;11.926;2023-12-20T08:13:48;4.80;99.90
16814;DHT22;8524;57.650;11.926;2023-12-20T08:16:15;4.80;99.90
16814;DHT22;8524;57.650;11.926;2023-12-20T08:18:43;4.80;99.90
16814;DHT22;8524;57.650;11.926;2023-12-20T08:21:09;4.80;99.90
16814;DHT22;8524;57.650;11.926;2023-12-20T08:23:38;4.90;99.90
16814;DHT22;8524;57.650;11.926;2023-12-20T08:26:05;4.90;99.90
16814;DHT22;8524;57.650;11.926;2023-12-20T08:28:32;4.90;99.90
16814;DHT22;8524;57.650;11.926;2023-12-20T08:30:59;4.90;99.90
16814;DHT22;8524;57.650;11.926;2023-12-20T08:33:26;5.00;99.90
16814;DHT22;8524;57.650;11.926;2023-12-20T08:35:53;5.00;99.90
16814;DHT22;8524;57.650;11.926;2023-12-20T08:38:20;5.10;99.90
16814;DHT22;8524;57.650;11.926;2023-12-20T08:40:49;5.10;99.90
16814;DHT22;8524;57.650;11.926;2023-12-20T08:43:15;5.20;99.90
16814;DHT22;8524;57.650;11.926;2023-12-20T08:45:42;5.10;99.90
16814;DHT22;8524;57.650;11.926;2023-12-20T08:48:09;5.20;99.90
16814;DHT22;8524;57.650;11.926;2023-12-20T08:50:36;5.20;99.90
16814;DHT22;8524;57.650;11.926;2023-12-20T08:53:04;5.20;99.90
16814;DHT22;8524;57.650;11.926;2023-12-20T08:55:31;5.20;99.90
16814;DHT22;8524;57.650;11.926;2023-12-20T08:57:59;5.20;99.90
16814;DHT22;8524;57.650;11.926;2023-12-20T09:00:26;5.20;99.90
16814;DHT22;8524;57.650;11.926;2023-12-20T09:02:53;5.30;99.90
16814;DHT22;8524;57.650;11.926;2023-12-20T09:05:21;5.20;99.90
16814;DHT22;8524;57.650;11.926;2023-12-20T09:07:48;5.20;99.90
16814;DHT22;8524;57.650;11.926;2023-12-20T09:10:14;5.20;99.90
16814;DHT22;8524;57.650;11.926;2023-12-20T09:12:41;5.20;99.90
16814;DHT22;8524;57.650;11.926;2023-12-20T09:15:10;5.20;99.90
16814;DHT22;8524;57.650;11.926;2023-12-20T09:17:36;5.20;99.90
16814;DHT22;8524;57.650;11.926;2023-12-20T09:20:04;5.20;99.90
16814;DHT22;8524;57.650;11.926;2023-12-20T09:22:32;5.20;99.90
16814;DHT22;8524;57.650;11.926;2023-12-20T09:25:00;5.30;99.90
16814;DHT22;8524;57.650;11.926;2023-12-20T09:27:27;5.30;99.90
16814;DHT22;8524;57.650;11.926;2023-12-20T09:29:54;5.30;99.90
16814;DHT22;8524;57.650;11.926;2023-12-20T09:32:22;5.30;99.90
16814;DHT22;8524;57.650;11.926;2023-12-20T09:34:49;5.20;99.90
16814;DHT22;8524;57.650;11.926;2023-12-20T09:37:16;5.20;99.90
16814;DHT22;8524;57.650;11.926;2023-12-20T09:39:43;5.20;99.90
16814;DHT22;8524;57.650;11.926;2023-12-20T09:42:12;5.20;99.90
16814;DHT22;8524;57.650;11.926;2023-12-20T09:44:43;5.20;99.90
16814;DHT22;8524;57.650;11.926;2023-12-20T09:47:10;5.20;99.90
16814;DHT22;8524;57.650;11.926;2023-12-20T09:49:38;5.20;99.90
16814;DHT22;8524;57.650;11.926;2023-12-20T09:52:07;5.20;99.90
16814;DHT22;8524;57.650;11.926;2023-12-20T09:54:36;5.20;99.90
16814;DHT22;8524;57.650;11.926;2023-12-20T09:57:03;5.10;99.90
16814;DHT22;8524;57.650;11.926;2023-12-20T09:59:30;5.30;99.90
16814;DHT22;8524;57.650;11.926;2023-12-20T10:01:58;5.30;99.90
16814;DHT22;8524;57.650;11.926;2023-12-20T10:04:32;5.30;99.90
16814;DHT22;8524;57.650;11.926;2023-12-20T10:07:03;5.30;99.90
16814;DHT22;8524;57.650;11.926;2023-12-20T10:09:31;5.30;99.90
16814;DHT22;8524;57.650;11.926;2023-12-20T10:11:58;5.30;99.90
16814;DHT22;8524;57.650;11.926;2023-12-20T10:14:25;5.30;99.90
16814;DHT22;8524;57.650;11.926;2023-12-20T10:16:52;5.40;99.90
16814;DHT22;8524;57.650;11.926;2023-12-20T10:19:21;5.30;99.90
16814;DHT22;8524;57.650;11.926;2023-12-20T10:21:47;5.30;99.90
16814;DHT22;8524;57.650;11.926;2023-12-20T10:24:18;5.30;99.90
16814;DHT22;8524;57.650;11.926;2023-12-20T10:26:45;5.30;99.90
16814;DHT22;8524;57.650;11.926;2023-12-20T10:29:12;5.30;99.90
16814;DHT22;8524;57.650;11.926;2023-12-20T10:31:39;5.30;99.90
16814;DHT22;8524;57.650;11.926;2023-12-20T10:34:06;5.30;99.90
16814;DHT22;8524;57.650;11.926;2023-12-20T10:36:33;5.30;99.90
16814;DHT22;8524;57.650;11.926;2023-12-20T10:39:02;5.20;99.90
16814;DHT22;8524;57.650;11.926;2023-12-20T10:41:32;5.30;99.90
16814;DHT22;8524;57.650;11.926;2023-12-20T10:44:02;5.10;99.90
16814;DHT22;8524;57.650;11.926;2023-12-20T10:46:30;5.10;99.90
16814;DHT22;8524;57.650;11.926;2023-12-20T10:48:58;5.20;99.90
16814;DHT22;8524;57.650;11.926;2023-12-20T10:51:25;5.20;99.90
16814;DHT22;8524;57.650;11.926;2023-12-20T10:53:54;5.20;99.90
16814;DHT22;8524;57.650;11.926;2023-12-20T10:56:21;5.20;99.90
16814;DHT22;8524;57.650;11.926;2023-12-20T10:58:50;5.10;99.90
16814;DHT22;8524;57.650;11.926;2023-12-20T11:01:18;5.20;99.90
16814;DHT22;8524;57.650;11.926;2023-12-20T11:03:49;5.20;99.90
16814;DHT22;8524;57.650;11.926;2023-12-20T11:06:26;5.20;99.90
16814;DHT22;8524;57.650;11.926;2023-12-20T11:09:01;5.20;99.90
16814;DHT22;8524;57.650;11.926;2023-12-20T11:11:39;5.20;99.90
16814;DHT22;8524;57.650;11.926;2023-12-20T11:14:17;5.30;99.90
16814;DHT22;8524;57.650;11.926;2023-12-20T11:16:46;5.30;99.90
16814;DHT22;8524;57.650;11.926;2023-12-20T11:19:12;5.30;99.90
16814;DHT22;8524;57.650;11.926;2023-12-20T11:21:40;5.30;99.90
16814;DHT22;8524;57.650;11.926;2023-12-20T11:24:08;5.40;99.90
16814;DHT22;8524;57.650;11.926;2023-12-20T11:26:36;5.40;99.90
16814;DHT22;8524;57.650;11.926;2023-12-20T11:29:35;5.40;99.90
16814;DHT22;8524;57.650;11.926;2023-12-20T11:32:02;5.40;99.90
16814;DHT22;8524;57.650;11.926;2023-12-20T11:34:32;5.40;99.90
16814;DHT22;8524;57.650;11.926;2023-12-20T11:36:59;5.50;99.90
16814;DHT22;8524;57.650;11.926;2023-12-20T11:39:27;5.40;99.90
16814;DHT22;8524;57.650;11.926;2023-12-20T11:41:55;5.50;99.90
16814;DHT22;8524;57.650;11.926;2023-12-20T11:44:25;5.60;99.90
16814;DHT22;8524;57.650;11.926;2023-12-20T11:46:55;5.60;99.90
16814;DHT22;8524;57.650;11.926;2023-12-20T11:49:24;5.60;99.90
16814;DHT22;8524;57.650;11.926;2023-12-20T11:51:51;5.70;99.90
16814;DHT22;8524;57.650;11.926;2023-12-20T11:54:18;5.80;99.90
16814;DHT22;8524;57.650;11.926;2023-12-20T11:56:46;5.80;99.90
16814;DHT22;8524;57.650;11.926;2023-12-20T11:59:14;5.70;99.90
16814;DHT22;8524;57.650;11.926;2023-12-20T12:01:48;5.70;99.90
16814;DHT22;8524;57.650;11.926;2023-12-20T12:04:17;5.60;99.90
16814;DHT22;8524;57.650;11.926;2023-12-20T12:06:44;5.50;99.90
16814;DHT22;8524;57.650;11.926;2023-12-20T12:09:11;5.60;99.90
16814;DHT22;8524;57.650;11.926;2023-12-20T12:11:38;5.60;99.90
16814;DHT22;8524;57.650;11.926;2023-12-20T12:14:06;5.60;99.90
16814;DHT22;8524;57.650;11.926;2023-12-20T12:16:33;5.60;99.90
16814;DHT22;8524;57.650;11.926;2023-12-20T12:19:00;5.70;99.90
16814;DHT22;8524;57.650;11.926;2023-12-20T12:21:28;5.80;99.90
16814;DHT22;8524;57.650;11.926;2023-12-20T12:24:07;5.90;99.90
16814;DHT22;8524;57.650;11.926;2023-12-20T12:26:34;6.00;99.90
16814;DHT22;8524;57.650;11.926;2023-12-20T12:29:01;6.10;99.90
16814;DHT22;8524;57.650;11.926;2023-12-20T12:31:28;6.30;99.90
16814;DHT22;8524;57.650;11.926;2023-12-20T12:33:56;6.30;99.90
16814;DHT22;8524;57.650;11.926;2023-12-20T12:36:23;6.30;99.90
16814;DHT22;8524;57.650;11.926;2023-12-20T12:38:51;6.30;99.90
16814;DHT22;8524;57.650;11.926;2023-12-20T12:41:18;6.20;99.90
16814;DHT22;8524;57.650;11.926;2023-12-20T12:43:44;6.20;99.90
16814;DHT22;8524;57.650;11.926;2023-12-20T12:46:11;6.20;99.90
16814;DHT22;8524;57.650;11.926;2023-12-20T12:48:38;6.20;99.90
16814;DHT22;8524;57.650;11.926;2023-12-20T12:51:05;6.20;99.90
16814;DHT22;8524;57.650;11.926;2023-12-20T12:53:33;6.20;99.90
16814;DHT22;8524;57.650;11.926;2023-12-20T12:56:01;6.20;99.90
16814;DHT22;8524;57.650;11.926;2023-12-20T12:58:28;6.30;99.90
16814;DHT22;8524;57.650;11.926;2023-12-20T13:00:55;6.20;99.90
16814;DHT22;8524;57.650;11.926;2023-12-20T13:03:22;6.20;99.90
16814;DHT22;8524;57.650;11.926;2023-12-20T13:05:49;6.10;99.90
16814;DHT22;8524;57.650;11.926;2023-12-20T13:08:16;6.10;99.90
16814;DHT22;8524;57.650;11.926;2023-12-20T13:10:43;6.10;99.90
16814;DHT22;8524;57.650;11.926;2023-12-20T13:13:12;6.10;99.90
16814;DHT22;8524;57.650;11.926;2023-12-20T13:15:39;6.10;99.90
16814;DHT22;8524;57.650;11.926;2023-12-20T13:18:06;6.00;99.90
16814;DHT22;8524;57.650;11.926;2023-12-20T13:20:33;6.00;99.90
16814;DHT22;8524;57.650;11.926;2023-12-20T13:23:00;6.10;99.90
16814;DHT22;8524;57.650;11.926;2023-12-20T13:25:29;6.00;99.90
16814;DHT22;8524;57.650;11.926;2023-12-20T13:27:56;6.00;99.90
16814;DHT22;8524;57.650;11.926;2023-12-20T13:30:26;6.00;99.90
16814;DHT22;8524;57.650;11.926;2023-12-20T13:32:53;6.00;99.90
16814;DHT22;8524;57.650;11.926;2023-12-20T13:42:22;6.00;99.90
16814;DHT22;8524;57.650;11.926;2023-12-20T13:44:49;5.90;99.90
16814;DHT22;8524;57.650;11.926;2023-12-20T13:47:17;5.90;99.90
16814;DHT22;8524;57.650;11.926;2023-12-20T13:49:45;5.90;99.90
16814;DHT22;8524;57.650;11.926;2023-12-20T13:52:12;5.80;99.90
16814;DHT22;8524;57.650;11.926;2023-12-20T13:54:39;5.80;99.90
16814;DHT22;8524;57.650;11.926;2023-12-20T13:57:05;5.70;99.90
16814;DHT22;8524;57.650;11.926;2023-12-20T13:59:32;5.60;99.90
16814;DHT22;8524;57.650;11.926;2023-12-20T14:02:00;5.60;99.90
16814;DHT22;8524;57.650;11.926;2023-12-20T14:04:30;5.50;99.90
16814;DHT22;8524;57.650;11.926;2023-12-20T14:06:57;5.50;99.90
16814;DHT22;8524;57.650;11.926;2023-12-20T14:09:24;5.50;99.90
16814;DHT22;8524;57.650;11.926;2023-12-20T14:11:51;5.40;99.90
16814;DHT22;8524;57.650;11.926;2023-12-20T14:14:20;5.40;99.90
16814;DHT22;8524;57.650;11.926;2023-12-20T14:16:47;5.40;99.90
16814;DHT22;8524;57.650;11.926;2023-12-20T14:19:14;5.30;99.90
16814;DHT22;8524;57.650;11.926;2023-12-20T14:21:42;5.30;99.90
16814;DHT22;8524;57.650;11.926;2023-12-20T14:24:11;5.30;99.90
16814;DHT22;8524;57.650;11.926;2023-12-20T14:26:40;5.20;99.90
16814;DHT22;8524;57.650;11.926;2023-12-20T14:29:07;5.20;99.90
16814;DHT22;8524;57.650;11.926;2023-12-20T14:31:34;5.10;99.90
16814;DHT22;8524;57.650;11.926;2023-12-20T14:34:02;5.10;99.90
16814;DHT22;8524;57.650;11.926;2023-12-20T14:36:30;5.00;99.90
16814;DHT22;8524;57.650;11.926;2023-12-20T14:38:58;5.00;99.90
16814;DHT22;8524;57.650;11.926;2023-12-20T14:41:26;5.00;99.90
16814;DHT22;8524;57.650;11.926;2023-12-20T14:43:53;5.00;99.90
16814;DHT22;8524;57.650;11.926;2023-12-20T14:46:20;4.90;99.90
16814;DHT22;8524;57.650;11.926;2023-12-20T14:48:47;4.90;99.90
16814;DHT22;8524;57.650;11.926;2023-12-20T14:51:15;4.90;99.90
16814;DHT22;8524;57.650;11.926;2023-12-20T14:53:42;4.80;99.90
16814;DHT22;8524;57.650;11.926;2023-12-20T14:56:10;4.70;99.90
16814;DHT22;8524;57.650;11.926;2023-12-20T14:58:37;4.70;99.90
16814;DHT22;8524;57.650;11.926;2023-12-20T15:01:04;4.70;99.90
16814;DHT22;8524;57.650;11.926;2023-12-20T15:03:34;4.60;99.90
16814;DHT22;8524;57.650;11.926;2023-12-20T15:06:00;4.70;99.90
16814;DHT22;8524;57.650;11.926;2023-12-20T15:08:27;4.60;99.90
16814;DHT22;8524;57.650;11.926;2023-12-20T15:10:54;4.70;99.90
16814;DHT22;8524;57.650;11.926;2023-12-20T15:13:22;4.60;99.90
16814;DHT22;8524;57.650;11.926;2023-12-20T15:15:49;4.50;99.90
16814;DHT22;8524;57.650;11.926;2023-12-20T15:18:16;4.50;99.90
16814;DHT22;8524;57.650;11.926;2023-12-20T15:20:43;4.50;99.90
16814;DHT22;8524;57.650;11.926;2023-12-20T15:23:10;4.40;99.90
16814;DHT22;8524;57.650;11.926;2023-12-20T15:25:37;4.50;99.90
16814;DHT22;8524;57.650;11.926;2023-12-20T15:28:04;4.50;99.90
16814;DHT22;8524;57.650;11.926;2023-12-20T15:30:33;4.50;99.90
16814;DHT22;8524;57.650;11.926;2023-12-20T15:33:01;4.50;99.90
16814;DHT22;8524;57.650;11.926;2023-12-20T15:35:28;4.50;99.90
16814;DHT22;8524;57.650;11.926;2023-12-20T15:37:56;4.50;99.90
16814;DHT22;8524;57.650;11.926;2023-12-20T15:40:24;4.40;99.90
16814;DHT22;8524;57.650;11.926;2023-12-20T15:42:50;4.30;99.90
16814;DHT22;8524;57.650;11.926;2023-12-20T15:45:18;4.40;99.90
16814;DHT22;8524;57.650;11.926;2023-12-20T15:47:46;4.30;99.90
16814;DHT22;8524;57.650;11.926;2023-12-20T15:50:13;4.30;99.90
16814;DHT22;8524;57.650;11.926;2023-12-20T15:52:40;4.20;99.90